sensor_id;sensor_type;location;lat;lon;timestamp;P1;durP1;ratioP1;P2;durP2;ratioP2
53931;SDS011;39844;52.496;13.482;2024-02-23T00:01:30;1.10;;;0.80;;
53931;SDS011;39844;52.496;13.482;2024-02-23T00:03:56;4.60;;;1.00;;
53931;SDS011;39844;52.496;13.482;2024-02-23T00:06:21;0.87;;;0.87;;
53931;SDS011;39844;52.496;13.482;2024-02-23T00:08:46;0.80;;;0.80;;
53931;SDS011;39844;52.496;13.482;2024-02-23T00:11:11;0.70;;;0.70;;
53931;SDS011;39844;52.496;13.482;2024-02-23T00:13:37;1.13;;;1.13;;
53931;SDS011;39844;52.496;13.482;2024-02-23T00:16:02;0.90;;;0.90;;
53931;SDS011;39844;52.496;13.482;2024-02-23T00:18:28;0.90;;;0.90;;
53931;SDS011;39844;52.496;13.482;2024-02-23T00:20:53;1.40;;;1.30;;
53931;SDS011;39844;52.496;13.482;2024-02-23T00:23:18;0.90;;;0.90;;
53931;SDS011;39844;52.496;13.482;2024-02-23T00:25:43;1.00;;;1.00;;
53931;SDS011;39844;52.496;13.482;2024-02-23T00:28:09;1.20;;;1.20;;
53931;SDS011;39844;52.496;13.482;2024-02-23T00:30:34;1.03;;;1.03;;
53931;SDS011;39844;52.496;13.482;2024-02-23T00:32:59;1.10;;;1.10;;
53931;SDS011;39844;52.496;13.482;2024-02-23T00:35:25;1.00;;;1.00;;
53931;SDS011;39844;52.496;13.482;2024-02-23T00:37:50;1.60;;;1.50;;
53931;SDS011;39844;52.496;13.482;2024-02-23T00:40:15;1.80;;;1.40;;
53931;SDS011;39844;52.496;13.482;2024-02-23T00:42:41;2.50;;;1.57;;
53931;SDS011;39844;52.496;13.482;2024-02-23T00:45:06;1.90;;;1.57;;
53931;SDS011;39844;52.496;13.482;2024-02-23T00:47:32;1.60;;;1.50;;
53931;SDS011;39844;52.496;13.482;2024-02-23T00:49:57;2.17;;;1.80;;
53931;SDS011;39844;52.496;13.482;2024-02-23T00:52:22;1.80;;;1.70;;
53931;SDS011;39844;52.496;13.482;2024-02-23T00:54:48;1.87;;;1.77;;
53931;SDS011;39844;52.496;13.482;2024-02-23T00:57:13;2.40;;;1.77;;
53931;SDS011;39844;52.496;13.482;2024-02-23T00:59:38;1.50;;;1.40;;
53931;SDS011;39844;52.496;13.482;2024-02-23T01:02:04;1.10;;;1.10;;
53931;SDS011;39844;52.496;13.482;2024-02-23T01:04:29;1.83;;;1.20;;
53931;SDS011;39844;52.496;13.482;2024-02-23T01:06:54;0.93;;;0.93;;
53931;SDS011;39844;52.496;13.482;2024-02-23T01:09:19;0.93;;;0.93;;
53931;SDS011;39844;52.496;13.482;2024-02-23T01:11:45;0.90;;;0.90;;
53931;SDS011;39844;52.496;13.482;2024-02-23T01:14:10;0.90;;;0.90;;
53931;SDS011;39844;52.496;13.482;2024-02-23T01:16:35;0.90;;;0.90;;
53931;SDS011;39844;52.496;13.482;2024-02-23T01:19:01;0.80;;;0.80;;
53931;SDS011;39844;52.496;13.482;2024-02-23T01:21:26;1.30;;;0.90;;
53931;SDS011;39844;52.496;13.482;2024-02-23T01:23:51;1.00;;;1.00;;
53931;SDS011;39844;52.496;13.482;2024-02-23T01:26:16;0.80;;;0.80;;
53931;SDS011;39844;52.496;13.482;2024-02-23T01:28:42;0.70;;;0.70;;
53931;SDS011;39844;52.496;13.482;2024-02-23T01:31:11;0.90;;;0.90;;
53931;SDS011;39844;52.496;13.482;2024-02-23T01:33:37;1.20;;;1.13;;
53931;SDS011;39844;52.496;13.482;2024-02-23T01:36:03;4.00;;;1.17;;
53931;SDS011;39844;52.496;13.482;2024-02-23T01:38:30;1.63;;;0.97;;
53931;SDS011;39844;52.496;13.482;2024-02-23T01:40:55;0.70;;;0.70;;
53931;SDS011;39844;52.496;13.482;2024-02-23T01:43:20;0.90;;;0.90;;
53931;SDS011;39844;52.496;13.482;2024-02-23T01:45:45;0.90;;;0.90;;
53931;SDS011;39844;52.496;13.482;2024-02-23T01:48:11;0.80;;;0.80;;
53931;SDS011;39844;52.496;13.482;2024-02-23T01:50:36;0.93;;;0.93;;
53931;SDS011;39844;52.496;13.482;2024-02-23T01:53:02;1.00;;;1.00;;
53931;SDS011;39844;52.496;13.482;2024-02-23T01:55:28;1.07;;;0.80;;
53931;SDS011;39844;52.496;13.482;2024-02-23T01:57:53;0.90;;;0.90;;
53931;SDS011;39844;52.496;13.482;2024-02-23T02:00:20;0.73;;;0.73;;
53931;SDS011;39844;52.496;13.482;2024-02-23T02:02:45;1.17;;;0.90;;
53931;SDS011;39844;52.496;13.482;2024-02-23T02:05:12;0.90;;;0.90;;
53931;SDS011;39844;52.496;13.482;2024-02-23T02:07:38;1.30;;;1.20;;
53931;SDS011;39844;52.496;13.482;2024-02-23T02:10:06;0.70;;;0.70;;
53931;SDS011;39844;52.496;13.482;2024-02-23T02:12:36;0.87;;;0.87;;
53931;SDS011;39844;52.496;13.482;2024-02-23T02:15:02;0.80;;;0.80;;
53931;SDS011;39844;52.496;13.482;2024-02-23T02:17:28;0.83;;;0.83;;
53931;SDS011;39844;52.496;13.482;2024-02-23T02:19:53;1.93;;;0.97;;
53931;SDS011;39844;52.496;13.482;2024-02-23T02:22:19;1.00;;;1.00;;
53931;SDS011;39844;52.496;13.482;2024-02-23T02:24:44;0.80;;;0.80;;
53931;SDS011;39844;52.496;13.482;2024-02-23T02:27:09;0.63;;;0.63;;
53931;SDS011;39844;52.496;13.482;2024-02-23T02:29:35;1.77;;;1.00;;
53931;SDS011;39844;52.496;13.482;2024-02-23T02:32:01;0.83;;;0.83;;
53931;SDS011;39844;52.496;13.482;2024-02-23T02:34:26;0.60;;;0.60;;
53931;SDS011;39844;52.496;13.482;2024-02-23T02:36:51;0.70;;;0.70;;
53931;SDS011;39844;52.496;13.482;2024-02-23T02:39:16;0.50;;;0.50;;
53931;SDS011;39844;52.496;13.482;2024-02-23T02:41:42;0.60;;;0.60;;
53931;SDS011;39844;52.496;13.482;2024-02-23T02:44:07;0.63;;;0.63;;
53931;SDS011;39844;52.496;13.482;2024-02-23T02:46:32;0.53;;;0.53;;
53931;SDS011;39844;52.496;13.482;2024-02-23T02:48:58;0.60;;;0.60;;
53931;SDS011;39844;52.496;13.482;2024-02-23T02:51:23;0.57;;;0.57;;
53931;SDS011;39844;52.496;13.482;2024-02-23T02:53:48;0.50;;;0.50;;
53931;SDS011;39844;52.496;13.482;2024-02-23T02:56:13;0.67;;;0.67;;
53931;SDS011;39844;52.496;13.482;2024-02-23T02:58:39;0.57;;;0.57;;
53931;SDS011;39844;52.496;13.482;2024-02-23T03:01:04;0.93;;;0.93;;
53931;SDS011;39844;52.496;13.482;2024-02-23T03:03:29;0.67;;;0.67;;
53931;SDS011;39844;52.496;13.482;2024-02-23T03:05:55;0.60;;;0.60;;
53931;SDS011;39844;52.496;13.482;2024-02-23T03:08:20;2.43;;;0.57;;
53931;SDS011;39844;52.496;13.482;2024-02-23T03:10:45;0.60;;;0.50;;
53931;SDS011;39844;52.496;13.482;2024-02-23T03:13:10;0.70;;;0.67;;
53931;SDS011;39844;52.496;13.482;2024-02-23T03:15:36;0.70;;;0.70;;
53931;SDS011;39844;52.496;13.482;2024-02-23T03:18:01;0.90;;;0.60;;
53931;SDS011;39844;52.496;13.482;2024-02-23T03:20:26;0.60;;;0.60;;
53931;SDS011;39844;52.496;13.482;2024-02-23T03:22:52;0.60;;;0.60;;
53931;SDS011;39844;52.496;13.482;2024-02-23T03:25:17;0.50;;;0.50;;
53931;SDS011;39844;52.496;13.482;2024-02-23T03:27:42;0.57;;;0.57;;
53931;SDS011;39844;52.496;13.482;2024-02-23T03:30:08;0.50;;;0.50;;
53931;SDS011;39844;52.496;13.482;2024-02-23T03:32:33;0.60;;;0.60;;
53931;SDS011;39844;52.496;13.482;2024-02-23T03:34:59;0.57;;;0.57;;
53931;SDS011;39844;52.496;13.482;2024-02-23T03:37:24;0.63;;;0.63;;
53931;SDS011;39844;52.496;13.482;2024-02-23T03:39:50;2.23;;;0.93;;
53931;SDS011;39844;52.496;13.482;2024-02-23T03:42:15;0.50;;;0.50;;
53931;SDS011;39844;52.496;13.482;2024-02-23T03:44:40;1.90;;;0.70;;
53931;SDS011;39844;52.496;13.482;2024-02-23T03:47:05;0.60;;;0.60;;
53931;SDS011;39844;52.496;13.482;2024-02-23T03:49:31;0.60;;;0.60;;
53931;SDS011;39844;52.496;13.482;2024-02-23T03:51:56;0.60;;;0.60;;
53931;SDS011;39844;52.496;13.482;2024-02-23T03:54:22;1.40;;;0.83;;
53931;SDS011;39844;52.496;13.482;2024-02-23T03:56:47;0.77;;;0.60;;
53931;SDS011;39844;52.496;13.482;2024-02-23T03:59:12;0.60;;;0.60;;
53931;SDS011;39844;52.496;13.482;2024-02-23T04:01:38;0.60;;;0.60;;
53931;SDS011;39844;52.496;13.482;2024-02-23T04:04:03;0.60;;;0.60;;
53931;SDS011;39844;52.496;13.482;2024-02-23T04:06:29;0.93;;;0.93;;
53931;SDS011;39844;52.496;13.482;2024-02-23T04:08:54;0.60;;;0.60;;
53931;SDS011;39844;52.496;13.482;2024-02-23T04:11:20;1.00;;;0.53;;
53931;SDS011;39844;52.496;13.482;2024-02-23T04:13:45;0.70;;;0.70;;
53931;SDS011;39844;52.496;13.482;2024-02-23T04:16:10;0.70;;;0.70;;
53931;SDS011;39844;52.496;13.482;2024-02-23T04:18:36;0.80;;;0.80;;
53931;SDS011;39844;52.496;13.482;2024-02-23T04:21:01;0.70;;;0.70;;
53931;SDS011;39844;52.496;13.482;2024-02-23T04:23:26;0.70;;;0.70;;
53931;SDS011;39844;52.496;13.482;2024-02-23T04:25:52;0.73;;;0.70;;
53931;SDS011;39844;52.496;13.482;2024-02-23T04:28:17;0.70;;;0.70;;
53931;SDS011;39844;52.496;13.482;2024-02-23T04:30:42;1.20;;;0.70;;
53931;SDS011;39844;52.496;13.482;2024-02-23T04:33:08;0.70;;;0.70;;
53931;SDS011;39844;52.496;13.482;2024-02-23T04:35:33;0.50;;;0.50;;
53931;SDS011;39844;52.496;13.482;2024-02-23T04:37:58;1.00;;;0.70;;
53931;SDS011;39844;52.496;13.482;2024-02-23T04:40:23;0.60;;;0.60;;
53931;SDS011;39844;52.496;13.482;2024-02-23T04:42:49;0.50;;;0.50;;
53931;SDS011;39844;52.496;13.482;2024-02-23T04:45:14;0.77;;;0.67;;
53931;SDS011;39844;52.496;13.482;2024-02-23T04:47:39;0.70;;;0.70;;
53931;SDS011;39844;52.496;13.482;2024-02-23T04:50:05;0.70;;;0.70;;
53931;SDS011;39844;52.496;13.482;2024-02-23T04:52:31;0.53;;;0.53;;
53931;SDS011;39844;52.496;13.482;2024-02-23T04:54:56;0.63;;;0.63;;
53931;SDS011;39844;52.496;13.482;2024-02-23T04:57:21;2.17;;;0.70;;
53931;SDS011;39844;52.496;13.482;2024-02-23T04:59:47;1.33;;;1.00;;
53931;SDS011;39844;52.496;13.482;2024-02-23T05:02:12;0.60;;;0.60;;
53931;SDS011;39844;52.496;13.482;2024-02-23T05:04:37;0.60;;;0.60;;
53931;SDS011;39844;52.496;13.482;2024-02-23T05:07:03;0.57;;;0.57;;
53931;SDS011;39844;52.496;13.482;2024-02-23T05:09:28;0.50;;;0.50;;
53931;SDS011;39844;52.496;13.482;2024-02-23T05:11:53;0.93;;;0.67;;
53931;SDS011;39844;52.496;13.482;2024-02-23T05:14:19;0.63;;;0.53;;
53931;SDS011;39844;52.496;13.482;2024-02-23T05:16:44;0.80;;;0.80;;
53931;SDS011;39844;52.496;13.482;2024-02-23T05:19:09;0.60;;;0.60;;
53931;SDS011;39844;52.496;13.482;2024-02-23T05:21:34;0.80;;;0.80;;
53931;SDS011;39844;52.496;13.482;2024-02-23T05:24:00;0.67;;;0.67;;
53931;SDS011;39844;52.496;13.482;2024-02-23T05:26:25;0.50;;;0.50;;
53931;SDS011;39844;52.496;13.482;2024-02-23T05:28:50;0.70;;;0.70;;
53931;SDS011;39844;52.496;13.482;2024-02-23T05:31:16;0.60;;;0.60;;
53931;SDS011;39844;52.496;13.482;2024-02-23T05:33:41;0.70;;;0.70;;
53931;SDS011;39844;52.496;13.482;2024-02-23T05:36:06;2.37;;;0.80;;
53931;SDS011;39844;52.496;13.482;2024-02-23T05:38:32;0.53;;;0.53;;
53931;SDS011;39844;52.496;13.482;2024-02-23T05:40:57;0.70;;;0.70;;
53931;SDS011;39844;52.496;13.482;2024-02-23T05:43:22;0.87;;;0.80;;
53931;SDS011;39844;52.496;13.482;2024-02-23T05:45:47;0.60;;;0.60;;
53931;SDS011;39844;52.496;13.482;2024-02-23T05:48:13;0.50;;;0.50;;
53931;SDS011;39844;52.496;13.482;2024-02-23T05:50:38;0.60;;;0.60;;
53931;SDS011;39844;52.496;13.482;2024-02-23T05:53:03;0.60;;;0.60;;
53931;SDS011;39844;52.496;13.482;2024-02-23T05:55:29;0.60;;;0.60;;
53931;SDS011;39844;52.496;13.482;2024-02-23T05:57:54;0.67;;;0.67;;
53931;SDS011;39844;52.496;13.482;2024-02-23T06:00:19;0.60;;;0.60;;
53931;SDS011;39844;52.496;13.482;2024-02-23T06:02:45;0.53;;;0.53;;
53931;SDS011;39844;52.496;13.482;2024-02-23T06:05:11;0.60;;;0.60;;
53931;SDS011;39844;52.496;13.482;2024-02-23T06:07:37;0.93;;;0.70;;
53931;SDS011;39844;52.496;13.482;2024-02-23T06:10:02;1.77;;;0.67;;
53931;SDS011;39844;52.496;13.482;2024-02-23T06:12:28;0.60;;;0.60;;
53931;SDS011;39844;52.496;13.482;2024-02-23T06:14:53;0.60;;;0.60;;
53931;SDS011;39844;52.496;13.482;2024-02-23T06:17:19;0.57;;;0.57;;
53931;SDS011;39844;52.496;13.482;2024-02-23T06:19:44;1.10;;;0.60;;
53931;SDS011;39844;52.496;13.482;2024-02-23T06:22:09;0.70;;;0.70;;
53931;SDS011;39844;52.496;13.482;2024-02-23T06:24:34;0.80;;;0.80;;
53931;SDS011;39844;52.496;13.482;2024-02-23T06:27:00;0.67;;;0.67;;
53931;SDS011;39844;52.496;13.482;2024-02-23T06:29:25;0.57;;;0.57;;
53931;SDS011;39844;52.496;13.482;2024-02-23T06:31:51;0.60;;;0.60;;
53931;SDS011;39844;52.496;13.482;2024-02-23T06:34:16;0.63;;;0.63;;
53931;SDS011;39844;52.496;13.482;2024-02-23T06:36:42;0.83;;;0.63;;
53931;SDS011;39844;52.496;13.482;2024-02-23T06:39:07;0.60;;;0.60;;
53931;SDS011;39844;52.496;13.482;2024-02-23T06:41:32;0.60;;;0.60;;
53931;SDS011;39844;52.496;13.482;2024-02-23T06:43:58;0.60;;;0.60;;
53931;SDS011;39844;52.496;13.482;2024-02-23T06:46:23;0.60;;;0.60;;
53931;SDS011;39844;52.496;13.482;2024-02-23T06:48:48;0.80;;;0.80;;
53931;SDS011;39844;52.496;13.482;2024-02-23T06:51:13;0.67;;;0.67;;
53931;SDS011;39844;52.496;13.482;2024-02-23T06:53:39;0.80;;;0.80;;
53931;SDS011;39844;52.496;13.482;2024-02-23T06:56:04;0.90;;;0.90;;
53931;SDS011;39844;52.496;13.482;2024-02-23T06:58:29;0.67;;;0.67;;
53931;SDS011;39844;52.496;13.482;2024-02-23T07:00:55;0.70;;;0.70;;
53931;SDS011;39844;52.496;13.482;2024-02-23T07:03:20;0.57;;;0.57;;
53931;SDS011;39844;52.496;13.482;2024-02-23T07:05:45;0.60;;;0.60;;
53931;SDS011;39844;52.496;13.482;2024-02-23T07:08:11;2.00;;;0.60;;
53931;SDS011;39844;52.496;13.482;2024-02-23T07:10:39;0.70;;;0.70;;
53931;SDS011;39844;52.496;13.482;2024-02-23T07:13:04;0.70;;;0.70;;
53931;SDS011;39844;52.496;13.482;2024-02-23T07:15:29;0.67;;;0.67;;
53931;SDS011;39844;52.496;13.482;2024-02-23T07:17:55;0.80;;;0.80;;
53931;SDS011;39844;52.496;13.482;2024-02-23T07:20:21;1.33;;;0.60;;
53931;SDS011;39844;52.496;13.482;2024-02-23T07:22:47;0.97;;;0.97;;
53931;SDS011;39844;52.496;13.482;2024-02-23T07:25:21;0.70;;;0.70;;
53931;SDS011;39844;52.496;13.482;2024-02-23T07:27:46;0.70;;;0.70;;
53931;SDS011;39844;52.496;13.482;2024-02-23T07:30:12;0.70;;;0.70;;
53931;SDS011;39844;52.496;13.482;2024-02-23T07:32:37;0.77;;;0.77;;
53931;SDS011;39844;52.496;13.482;2024-02-23T07:35:03;0.73;;;0.73;;
53931;SDS011;39844;52.496;13.482;2024-02-23T07:37:29;0.60;;;0.60;;
53931;SDS011;39844;52.496;13.482;2024-02-23T07:39:54;0.60;;;0.60;;
53931;SDS011;39844;52.496;13.482;2024-02-23T07:42:20;0.60;;;0.60;;
53931;SDS011;39844;52.496;13.482;2024-02-23T07:44:45;0.70;;;0.70;;
53931;SDS011;39844;52.496;13.482;2024-02-23T07:47:13;0.77;;;0.77;;
53931;SDS011;39844;52.496;13.482;2024-02-23T07:49:39;0.67;;;0.67;;
53931;SDS011;39844;52.496;13.482;2024-02-23T07:52:04;0.60;;;0.60;;
53931;SDS011;39844;52.496;13.482;2024-02-23T07:54:30;0.70;;;0.67;;
53931;SDS011;39844;52.496;13.482;2024-02-23T07:56:55;0.53;;;0.53;;
53931;SDS011;39844;52.496;13.482;2024-02-23T07:59:20;0.60;;;0.60;;
53931;SDS011;39844;52.496;13.482;2024-02-23T08:01:48;0.60;;;0.60;;
53931;SDS011;39844;52.496;13.482;2024-02-23T08:04:13;0.70;;;0.70;;
53931;SDS011;39844;52.496;13.482;2024-02-23T08:06:38;0.77;;;0.77;;
53931;SDS011;39844;52.496;13.482;2024-02-23T08:09:04;0.70;;;0.70;;
53931;SDS011;39844;52.496;13.482;2024-02-23T08:11:29;0.80;;;0.80;;
53931;SDS011;39844;52.496;13.482;2024-02-23T08:13:54;0.67;;;0.67;;
53931;SDS011;39844;52.496;13.482;2024-02-23T08:16:20;0.73;;;0.73;;
53931;SDS011;39844;52.496;13.482;2024-02-23T08:18:45;0.60;;;0.60;;
53931;SDS011;39844;52.496;13.482;2024-02-23T08:21:10;0.70;;;0.70;;
53931;SDS011;39844;52.496;13.482;2024-02-23T08:23:38;0.70;;;0.70;;
53931;SDS011;39844;52.496;13.482;2024-02-23T08:26:03;0.87;;;0.87;;
53931;SDS011;39844;52.496;13.482;2024-02-23T08:28:29;1.70;;;1.50;;
53931;SDS011;39844;52.496;13.482;2024-02-23T08:30:54;1.20;;;1.20;;
53931;SDS011;39844;52.496;13.482;2024-02-23T08:33:19;0.90;;;0.90;;
53931;SDS011;39844;52.496;13.482;2024-02-23T08:35:45;0.60;;;0.60;;
53931;SDS011;39844;52.496;13.482;2024-02-23T08:38:10;0.70;;;0.70;;
53931;SDS011;39844;52.496;13.482;2024-02-23T08:40:36;0.70;;;0.70;;
53931;SDS011;39844;52.496;13.482;2024-02-23T08:43:01;0.70;;;0.70;;
53931;SDS011;39844;52.496;13.482;2024-02-23T08:45:27;0.70;;;0.70;;
53931;SDS011;39844;52.496;13.482;2024-02-23T08:47:52;0.80;;;0.80;;
53931;SDS011;39844;52.496;13.482;2024-02-23T08:50:17;1.90;;;0.70;;
53931;SDS011;39844;52.496;13.482;2024-02-23T08:52:43;1.90;;;0.70;;
53931;SDS011;39844;52.496;13.482;2024-02-23T08:55:08;0.60;;;0.60;;
53931;SDS011;39844;52.496;13.482;2024-02-23T08:57:33;1.40;;;0.80;;
53931;SDS011;39844;52.496;13.482;2024-02-23T08:59:59;0.80;;;0.80;;
53931;SDS011;39844;52.496;13.482;2024-02-23T09:02:24;0.60;;;0.60;;
53931;SDS011;39844;52.496;13.482;2024-02-23T09:04:49;0.70;;;0.70;;
53931;SDS011;39844;52.496;13.482;2024-02-23T09:07:15;0.60;;;0.60;;
53931;SDS011;39844;52.496;13.482;2024-02-23T09:09:40;0.63;;;0.63;;
53931;SDS011;39844;52.496;13.482;2024-02-23T09:12:06;0.70;;;0.70;;
53931;SDS011;39844;52.496;13.482;2024-02-23T09:14:31;0.70;;;0.70;;
53931;SDS011;39844;52.496;13.482;2024-02-23T09:16:56;0.80;;;0.80;;
53931;SDS011;39844;52.496;13.482;2024-02-23T09:19:22;0.53;;;0.53;;
53931;SDS011;39844;52.496;13.482;2024-02-23T09:21:47;0.50;;;0.50;;
53931;SDS011;39844;52.496;13.482;2024-02-23T09:24:12;0.70;;;0.70;;
53931;SDS011;39844;52.496;13.482;2024-02-23T09:26:37;0.60;;;0.60;;
53931;SDS011;39844;52.496;13.482;2024-02-23T09:29:03;0.60;;;0.60;;
53931;SDS011;39844;52.496;13.482;2024-02-23T09:31:28;0.77;;;0.77;;
53931;SDS011;39844;52.496;13.482;2024-02-23T09:33:57;1.17;;;0.90;;
53931;SDS011;39844;52.496;13.482;2024-02-23T09:36:22;1.47;;;0.70;;
53931;SDS011;39844;52.496;13.482;2024-02-23T09:38:48;1.70;;;0.70;;
53931;SDS011;39844;52.496;13.482;2024-02-23T09:41:20;0.70;;;0.70;;
53931;SDS011;39844;52.496;13.482;2024-02-23T09:43:47;1.53;;;0.57;;
53931;SDS011;39844;52.496;13.482;2024-02-23T09:46:13;0.70;;;0.70;;
53931;SDS011;39844;52.496;13.482;2024-02-23T09:48:39;2.23;;;0.60;;
53931;SDS011;39844;52.496;13.482;2024-02-23T09:51:04;4.33;;;0.93;;
53931;SDS011;39844;52.496;13.482;2024-02-23T09:53:31;0.63;;;0.63;;
53931;SDS011;39844;52.496;13.482;2024-02-23T09:55:57;1.17;;;0.67;;
53931;SDS011;39844;52.496;13.482;2024-02-23T09:58:24;0.60;;;0.60;;
53931;SDS011;39844;52.496;13.482;2024-02-23T10:00:49;1.47;;;0.60;;
53931;SDS011;39844;52.496;13.482;2024-02-23T10:03:15;0.73;;;0.60;;
53931;SDS011;39844;52.496;13.482;2024-02-23T10:05:40;0.73;;;0.73;;
53931;SDS011;39844;52.496;13.482;2024-02-23T10:08:05;1.60;;;0.70;;
53931;SDS011;39844;52.496;13.482;2024-02-23T10:10:34;0.60;;;0.60;;
53931;SDS011;39844;52.496;13.482;2024-02-23T10:13:00;0.77;;;0.77;;
53931;SDS011;39844;52.496;13.482;2024-02-23T10:15:30;0.60;;;0.60;;
53931;SDS011;39844;52.496;13.482;2024-02-23T10:17:55;0.57;;;0.53;;
53931;SDS011;39844;52.496;13.482;2024-02-23T10:20:20;0.60;;;0.60;;
53931;SDS011;39844;52.496;13.482;2024-02-23T10:22:46;0.40;;;0.40;;
53931;SDS011;39844;52.496;13.482;2024-02-23T10:25:12;0.83;;;0.60;;
53931;SDS011;39844;52.496;13.482;2024-02-23T10:27:37;0.60;;;0.60;;
53931;SDS011;39844;52.496;13.482;2024-02-23T10:30:02;0.60;;;0.60;;
53931;SDS011;39844;52.496;13.482;2024-02-23T10:32:29;0.70;;;0.70;;
53931;SDS011;39844;52.496;13.482;2024-02-23T10:34:54;1.37;;;0.80;;
53931;SDS011;39844;52.496;13.482;2024-02-23T10:37:24;0.60;;;0.60;;
53931;SDS011;39844;52.496;13.482;2024-02-23T10:39:50;0.70;;;0.70;;
53931;SDS011;39844;52.496;13.482;2024-02-23T10:42:22;0.60;;;0.60;;
53931;SDS011;39844;52.496;13.482;2024-02-23T10:44:48;0.50;;;0.50;;
53931;SDS011;39844;52.496;13.482;2024-02-23T10:47:15;0.63;;;0.63;;
53931;SDS011;39844;52.496;13.482;2024-02-23T10:49:40;1.80;;;0.70;;
53931;SDS011;39844;52.496;13.482;2024-02-23T10:52:09;1.20;;;0.67;;
53931;SDS011;39844;52.496;13.482;2024-02-23T10:54:36;0.50;;;0.50;;
53931;SDS011;39844;52.496;13.482;2024-02-23T10:57:01;1.50;;;0.87;;
53931;SDS011;39844;52.496;13.482;2024-02-23T10:59:27;0.60;;;0.60;;
53931;SDS011;39844;52.496;13.482;2024-02-23T11:01:52;0.57;;;0.57;;
53931;SDS011;39844;52.496;13.482;2024-02-23T11:04:19;2.50;;;0.60;;
53931;SDS011;39844;52.496;13.482;2024-02-23T11:06:53;0.63;;;0.63;;
53931;SDS011;39844;52.496;13.482;2024-02-23T11:09:23;1.00;;;1.00;;
53931;SDS011;39844;52.496;13.482;2024-02-23T11:11:56;0.60;;;0.60;;
53931;SDS011;39844;52.496;13.482;2024-02-23T11:16:57;0.60;;;0.60;;
53931;SDS011;39844;52.496;13.482;2024-02-23T11:19:31;0.50;;;0.50;;
53931;SDS011;39844;52.496;13.482;2024-02-23T11:21:57;1.27;;;0.80;;
53931;SDS011;39844;52.496;13.482;2024-02-23T11:24:25;0.70;;;0.70;;
53931;SDS011;39844;52.496;13.482;2024-02-23T11:26:56;0.70;;;0.70;;
53931;SDS011;39844;52.496;13.482;2024-02-23T11:29:21;0.50;;;0.50;;
53931;SDS011;39844;52.496;13.482;2024-02-23T11:31:47;0.50;;;0.50;;
53931;SDS011;39844;52.496;13.482;2024-02-23T11:34:12;2.40;;;0.73;;
53931;SDS011;39844;52.496;13.482;2024-02-23T11:36:38;0.70;;;0.70;;
53931;SDS011;39844;52.496;13.482;2024-02-23T11:39:04;0.60;;;0.60;;
53931;SDS011;39844;52.496;13.482;2024-02-23T11:41:34;0.53;;;0.53;;
53931;SDS011;39844;52.496;13.482;2024-02-23T11:44:01;0.70;;;0.70;;
53931;SDS011;39844;52.496;13.482;2024-02-23T11:46:26;0.73;;;0.60;;
53931;SDS011;39844;52.496;13.482;2024-02-23T11:48:51;0.40;;;0.40;;
53931;SDS011;39844;52.496;13.482;2024-02-23T11:51:16;0.70;;;0.70;;
53931;SDS011;39844;52.496;13.482;2024-02-23T11:53:42;0.73;;;0.70;;
53931;SDS011;39844;52.496;13.482;2024-02-23T11:56:08;0.50;;;0.50;;
53931;SDS011;39844;52.496;13.482;2024-02-23T11:58:35;1.57;;;0.80;;
53931;SDS011;39844;52.496;13.482;2024-02-23T12:01:00;0.67;;;0.67;;
53931;SDS011;39844;52.496;13.482;2024-02-23T12:03:26;0.70;;;0.70;;
53931;SDS011;39844;52.496;13.482;2024-02-23T12:05:51;0.83;;;0.80;;
53931;SDS011;39844;52.496;13.482;2024-02-23T12:08:17;0.70;;;0.70;;
53931;SDS011;39844;52.496;13.482;2024-02-23T12:10:42;0.60;;;0.60;;
53931;SDS011;39844;52.496;13.482;2024-02-23T12:13:08;0.93;;;0.90;;
53931;SDS011;39844;52.496;13.482;2024-02-23T12:15:33;1.37;;;0.90;;
53931;SDS011;39844;52.496;13.482;2024-02-23T12:17:59;0.97;;;0.80;;
53931;SDS011;39844;52.496;13.482;2024-02-23T12:20:24;1.07;;;0.80;;
53931;SDS011;39844;52.496;13.482;2024-02-23T12:22:49;1.60;;;0.77;;
53931;SDS011;39844;52.496;13.482;2024-02-23T12:25:14;0.67;;;0.67;;
53931;SDS011;39844;52.496;13.482;2024-02-23T12:27:40;0.50;;;0.50;;
53931;SDS011;39844;52.496;13.482;2024-02-23T12:30:06;0.97;;;0.97;;
53931;SDS011;39844;52.496;13.482;2024-02-23T12:32:37;0.70;;;0.70;;
53931;SDS011;39844;52.496;13.482;2024-02-23T12:35:03;0.60;;;0.60;;
53931;SDS011;39844;52.496;13.482;2024-02-23T12:37:34;0.73;;;0.73;;
53931;SDS011;39844;52.496;13.482;2024-02-23T12:40:00;0.60;;;0.60;;
53931;SDS011;39844;52.496;13.482;2024-02-23T12:42:25;1.50;;;1.40;;
53931;SDS011;39844;52.496;13.482;2024-02-23T12:44:51;0.90;;;0.90;;
53931;SDS011;39844;52.496;13.482;2024-02-23T12:47:16;1.00;;;0.90;;
53931;SDS011;39844;52.496;13.482;2024-02-23T12:49:41;1.80;;;0.90;;
53931;SDS011;39844;52.496;13.482;2024-02-23T12:52:06;2.53;;;0.73;;
53931;SDS011;39844;52.496;13.482;2024-02-23T12:54:32;4.40;;;2.47;;
53931;SDS011;39844;52.496;13.482;2024-02-23T12:56:57;1.07;;;1.00;;
53931;SDS011;39844;52.496;13.482;2024-02-23T12:59:22;2.37;;;1.03;;
53931;SDS011;39844;52.496;13.482;2024-02-23T13:01:48;1.33;;;0.80;;
53931;SDS011;39844;52.496;13.482;2024-02-23T13:04:13;0.70;;;0.70;;
53931;SDS011;39844;52.496;13.482;2024-02-23T13:06:38;1.23;;;0.90;;
53931;SDS011;39844;52.496;13.482;2024-02-23T13:09:04;0.77;;;0.77;;
53931;SDS011;39844;52.496;13.482;2024-02-23T13:11:33;0.80;;;0.80;;
53931;SDS011;39844;52.496;13.482;2024-02-23T13:13:59;0.70;;;0.70;;
53931;SDS011;39844;52.496;13.482;2024-02-23T13:16:24;0.70;;;0.70;;
53931;SDS011;39844;52.496;13.482;2024-02-23T13:18:49;1.80;;;0.60;;
53931;SDS011;39844;52.496;13.482;2024-02-23T13:21:15;0.90;;;0.90;;
53931;SDS011;39844;52.496;13.482;2024-02-23T13:23:40;1.87;;;0.60;;
53931;SDS011;39844;52.496;13.482;2024-02-23T13:26:05;0.67;;;0.67;;
53931;SDS011;39844;52.496;13.482;2024-02-23T13:28:31;0.70;;;0.70;;
53931;SDS011;39844;52.496;13.482;2024-02-23T13:30:56;0.80;;;0.80;;
53931;SDS011;39844;52.496;13.482;2024-02-23T13:33:21;0.70;;;0.70;;
53931;SDS011;39844;52.496;13.482;2024-02-23T13:35:47;1.90;;;0.80;;
53931;SDS011;39844;52.496;13.482;2024-02-23T13:38:12;1.53;;;0.73;;
53931;SDS011;39844;52.496;13.482;2024-02-23T13:40:37;0.83;;;0.70;;
53931;SDS011;39844;52.496;13.482;2024-02-23T13:43:02;0.60;;;0.60;;
53931;SDS011;39844;52.496;13.482;2024-02-23T13:45:28;0.80;;;0.80;;
53931;SDS011;39844;52.496;13.482;2024-02-23T13:48:00;0.83;;;0.83;;
53931;SDS011;39844;52.496;13.482;2024-02-23T13:50:26;0.50;;;0.50;;
53931;SDS011;39844;52.496;13.482;2024-02-23T13:52:52;0.80;;;0.80;;
53931;SDS011;39844;52.496;13.482;2024-02-23T13:55:18;1.27;;;0.53;;
53931;SDS011;39844;52.496;13.482;2024-02-23T13:57:43;0.90;;;0.77;;
53931;SDS011;39844;52.496;13.482;2024-02-23T14:00:09;0.60;;;0.60;;
53931;SDS011;39844;52.496;13.482;2024-02-23T14:02:35;0.70;;;0.70;;
53931;SDS011;39844;52.496;13.482;2024-02-23T14:05:00;0.70;;;0.70;;
53931;SDS011;39844;52.496;13.482;2024-02-23T14:07:27;0.60;;;0.60;;
53931;SDS011;39844;52.496;13.482;2024-02-23T14:09:52;0.60;;;0.60;;
53931;SDS011;39844;52.496;13.482;2024-02-23T14:12:17;0.73;;;0.73;;
53931;SDS011;39844;52.496;13.482;2024-02-23T14:14:43;1.03;;;0.93;;
53931;SDS011;39844;52.496;13.482;2024-02-23T14:17:08;0.60;;;0.60;;
53931;SDS011;39844;52.496;13.482;2024-02-23T14:19:33;0.80;;;0.80;;
53931;SDS011;39844;52.496;13.482;2024-02-23T14:21:58;0.67;;;0.50;;
53931;SDS011;39844;52.496;13.482;2024-02-23T14:24:24;0.70;;;0.70;;
53931;SDS011;39844;52.496;13.482;2024-02-23T14:26:49;3.10;;;1.00;;